Terminal Aerodrome Forecast
Issued by NWS

Home | Current Version | Previous Version | Text Only | Print | Product List | Glossary On
Versions: 1 2 3 4 5 6 7 8 9 10 11 12
874
FTUS45 KVEF 141120
TAFDAG
TAF
KDAG 141120Z 1412/1512 27008KT P6SM FEW250
     FM141900 32008KT P6SM FEW250
     FM142200 02007KT P6SM FEW250
     FM150300 24007KT P6SM FEW250
     FM150600 27007KT P6SM FEW250=

USA.gov is the U.S. government's official web portal to all federal, state and local government web resources and services.